createdAt,value
2019-06-07T00:00:40.533Z,45.39
2019-06-07T00:01:24.472Z,45.50
2019-06-07T00:02:08.377Z,45.47
2019-06-07T00:02:51.535Z,45.54
2019-06-07T00:03:37.450Z,45.47
2019-06-07T00:04:21.566Z,45.57
2019-06-07T00:05:07.669Z,45.27
2019-06-07T00:05:51.566Z,45.48
2019-06-07T00:06:34.903Z,45.50
2019-06-07T00:07:21.832Z,45.49
2019-06-07T00:08:07.347Z,45.31
2019-06-07T00:08:49.074Z,45.47
2019-06-07T00:09:32.164Z,45.39
2019-06-07T00:10:34.970Z,45.47
2019-06-07T00:11:01.416Z,45.51
2019-06-07T00:11:44.379Z,45.46
2019-06-07T00:12:27.674Z,45.43
2019-06-07T00:13:12.886Z,45.41
2019-06-07T00:13:56.190Z,45.41
2019-06-07T00:14:39.539Z,45.53
2019-06-07T00:15:28.786Z,45.30
2019-06-07T00:16:08.739Z,45.53
2019-06-07T00:16:52.303Z,45.41
2019-06-07T00:17:35.454Z,45.45
2019-06-07T00:18:25.167Z,45.42
2019-06-07T00:19:04.223Z,45.45
2019-06-07T00:19:47.814Z,45.60
2019-06-07T00:20:30.632Z,45.54
2019-06-07T00:21:17.023Z,45.75
2019-06-07T00:22:17.645Z,45.75
2019-06-07T00:22:45.346Z,45.64
2019-06-07T00:23:29.054Z,45.74
2019-06-07T00:24:14.276Z,45.67
2019-06-07T00:24:57.518Z,45.45
2019-06-07T00:25:41.223Z,45.50
2019-06-07T00:26:24.652Z,45.52
2019-06-07T00:27:08.411Z,45.51
2019-06-07T00:27:51.782Z,45.63
2019-06-07T00:28:35.431Z,45.57
2019-06-07T00:29:19.565Z,45.41
2019-06-07T00:30:29.676Z,45.51
2019-06-07T00:30:51.985Z,45.52
2019-06-07T00:31:33.186Z,45.55
2019-06-07T00:32:19.990Z,45.49
2019-06-07T00:33:02.504Z,45.47
2019-06-07T00:33:45.530Z,45.62
2019-06-07T00:34:28.942Z,45.44
2019-06-07T00:35:15.476Z,45.59
2019-06-07T00:35:57.884Z,45.45
2019-06-07T00:36:41.874Z,45.39
2019-06-07T00:37:25.701Z,45.54
2019-06-07T00:38:09.402Z,45.36
2019-06-07T00:38:52.754Z,45.57
2019-06-07T00:39:36.277Z,45.54
2019-06-07T00:40:31.499Z,45.56
2019-06-07T00:41:07.274Z,45.46
2019-06-07T00:41:51.247Z,45.43
2019-06-07T00:42:34.546Z,45.43
2019-06-07T00:43:24.830Z,45.34
2019-06-07T00:44:03.611Z,45.48
2019-06-07T00:44:46.464Z,45.43
2019-06-07T00:45:29.804Z,45.55
2019-06-07T00:46:15.708Z,45.48
2019-06-07T00:46:57.637Z,45.38
2019-06-07T00:47:41.368Z,45.54
2019-06-07T00:48:32.172Z,45.34
2019-06-07T00:49:13.273Z,45.45
2019-06-07T00:49:55.615Z,45.52
2019-06-07T00:50:39.459Z,45.48
2019-06-07T00:51:24.052Z,45.28
2019-06-07T00:52:07.673Z,45.45
2019-06-07T00:53:14.397Z,45.51
2019-06-07T00:53:36.685Z,45.34
2019-06-07T00:54:22.451Z,45.24
2019-06-07T00:55:08.587Z,45.51
2019-06-07T00:55:51.679Z,45.62
2019-06-07T00:56:35.215Z,45.70
2019-06-07T00:57:21.532Z,45.58
2019-06-07T00:58:04.987Z,45.48
2019-06-07T00:59:09.829Z,45.48
2019-06-07T00:59:33.499Z,45.40
2019-06-07T01:00:18.327Z,45.48
2019-06-07T01:01:01.723Z,45.44
2019-06-07T01:01:44.894Z,45.29
2019-06-07T01:02:31.195Z,45.40
2019-06-07T01:03:14.855Z,45.52
2019-06-07T01:03:58.487Z,45.51
2019-06-07T01:04:41.960Z,45.25
2019-06-07T01:05:30.950Z,45.27
2019-06-07T01:06:12.370Z,45.50
2019-06-07T01:06:56.107Z,45.28
2019-06-07T01:07:39.560Z,45.39
2019-06-07T01:08:27.721Z,45.55
2019-06-07T01:09:08.709Z,45.22
2019-06-07T01:09:52.835Z,45.41
2019-06-07T01:10:53.149Z,45.43
2019-06-07T01:11:23.561Z,45.40
2019-06-07T01:12:07.036Z,45.43
2019-06-07T01:12:50.667Z,45.61
2019-06-07T01:13:33.897Z,45.56
2019-06-07T01:14:19.379Z,45.49
2019-06-07T01:15:03.405Z,45.53
2019-06-07T01:15:46.559Z,45.52
2019-06-07T01:16:53.057Z,45.48
2019-06-07T01:17:39.679Z,45.67
2019-06-07T01:18:37.454Z,45.39
2019-06-07T01:18:55.447Z,45.74
2019-06-07T01:19:39.179Z,45.55
2019-06-07T01:20:24.370Z,45.56
2019-06-07T01:21:08.117Z,45.62
2019-06-07T01:21:51.479Z,45.62
2019-06-07T01:22:34.627Z,45.59
2019-06-07T01:23:57.811Z,45.63
2019-06-07T01:24:11.871Z,45.63
2019-06-07T01:24:48.845Z,45.49
2019-06-07T01:25:32.731Z,45.58
2019-06-07T01:26:18.952Z,45.68
2019-06-07T01:27:00.607Z,45.86
2019-06-07T01:27:44.592Z,45.72
2019-06-07T01:28:30.200Z,45.62
2019-06-07T01:29:13.152Z,45.69
2019-06-07T01:29:56.581Z,45.62
2019-06-07T01:30:40.243Z,45.63
2019-06-07T01:31:27.539Z,45.67
2019-06-07T01:32:09.179Z,45.55
2019-06-07T01:32:52.987Z,45.58
2019-06-07T01:33:50.486Z,45.45
2019-06-07T01:34:23.806Z,45.45
2019-06-07T01:35:07.423Z,45.66
2019-06-07T01:35:50.294Z,45.64
2019-06-07T01:36:33.858Z,45.50
2019-06-07T01:37:20.026Z,45.31
2019-06-07T01:38:02.160Z,45.52
2019-06-07T01:38:46.330Z,45.42
2019-06-07T01:39:31.806Z,45.46
2019-06-07T01:40:16.993Z,45.50
2019-06-07T01:40:59.935Z,45.39
2019-06-07T01:41:43.741Z,45.61
2019-06-07T01:42:29.452Z,45.63
2019-06-07T01:43:12.447Z,45.45
2019-06-07T01:43:56.019Z,45.59
2019-06-07T01:44:38.932Z,45.41
2019-06-07T01:45:23.634Z,45.50
2019-06-07T01:46:07.438Z,45.52
2019-06-07T01:46:50.305Z,45.38
2019-06-07T01:47:34.043Z,45.59
2019-06-07T01:48:21.600Z,45.38
2019-06-07T01:49:02.953Z,45.45
2019-06-07T01:49:46.751Z,45.44
2019-06-07T01:50:30.470Z,45.46
2019-06-07T01:51:14.531Z,45.42
2019-06-07T01:51:58.323Z,45.39
2019-06-07T01:52:41.874Z,45.56
2019-06-07T01:53:26.429Z,45.46
2019-06-07T01:54:49.268Z,45.31
2019-06-07T01:54:58.809Z,45.57
2019-06-07T01:55:41.165Z,45.42
2019-06-07T01:56:28.264Z,45.53
2019-06-07T01:57:30.524Z,45.36
2019-06-07T01:57:54.682Z,45.57
2019-06-07T01:58:38.138Z,45.46
2019-06-07T01:59:23.252Z,45.45
2019-06-07T02:00:06.865Z,45.41
2019-06-07T02:00:50.277Z,45.62
2019-06-07T02:01:35.280Z,45.59
2019-06-07T02:02:20.057Z,45.47
2019-06-07T02:03:03.645Z,45.36
2019-06-07T02:03:47.373Z,45.33
2019-06-07T02:04:33.180Z,45.46
2019-06-07T02:05:15.789Z,45.34
2019-06-07T02:05:59.252Z,45.38
2019-06-07T02:06:42.750Z,45.26
2019-06-07T02:07:30.348Z,45.12
2019-06-07T02:08:11.565Z,45.29
2019-06-07T02:08:54.324Z,45.41
2019-06-07T02:09:37.678Z,45.42
2019-06-07T02:10:24.683Z,45.18
2019-06-07T02:11:06.075Z,45.23
2019-06-07T02:11:49.597Z,45.50
2019-06-07T02:12:42.443Z,45.35
2019-06-07T02:13:18.776Z,45.38
2019-06-07T02:14:02.012Z,45.21
2019-06-07T02:14:45.518Z,45.20
2019-06-07T02:15:36.160Z,45.46
2019-06-07T02:16:15.282Z,45.34
2019-06-07T02:16:59.376Z,45.31
2019-06-07T02:17:42.640Z,45.11
2019-06-07T02:18:28.423Z,45.27
2019-06-07T02:19:11.087Z,45.31
2019-06-07T02:19:54.362Z,45.34
2019-06-07T02:20:38.316Z,45.36
2019-06-07T02:21:24.715Z,45.16
2019-06-07T02:22:07.225Z,45.37
2019-06-07T02:22:50.937Z,45.46
2019-06-07T02:23:34.494Z,45.38
2019-06-07T02:24:17.511Z,45.34
2019-06-07T02:25:50.406Z,45.27
2019-06-07T02:26:32.640Z,45.40
2019-06-07T02:27:16.451Z,45.32
2019-06-07T02:28:25.837Z,45.37
2019-06-07T02:28:45.811Z,45.36
2019-06-07T02:29:31.897Z,45.31
2019-06-07T02:31:00.768Z,45.28
2019-06-07T02:31:44.710Z,45.40
2019-06-07T02:32:31.735Z,45.45
2019-06-07T02:33:14.752Z,45.22
2019-06-07T02:33:58.422Z,45.28
2019-06-07T02:34:42.099Z,45.35
2019-06-07T02:35:30.886Z,45.42
2019-06-07T02:36:11.122Z,45.26
2019-06-07T02:36:55.250Z,45.21
2019-06-07T02:37:38.344Z,45.30
2019-06-07T02:38:23.156Z,45.50
2019-06-07T02:39:08.225Z,45.37
2019-06-07T02:39:50.874Z,45.23
2019-06-07T02:40:37.500Z,45.25
2019-06-07T02:41:22.935Z,45.32
2019-06-07T02:42:05.113Z,45.28
2019-06-07T02:42:48.936Z,45.29
2019-06-07T02:43:36.693Z,45.30
2019-06-07T02:44:18.271Z,45.19
2019-06-07T02:45:02.215Z,45.20
2019-06-07T02:45:45.779Z,45.40
2019-06-07T02:46:36.363Z,45.22
2019-06-07T02:47:14.064Z,45.29
2019-06-07T02:47:57.595Z,45.49
2019-06-07T02:48:40.730Z,45.18
2019-06-07T02:49:28.260Z,45.34
2019-06-07T02:50:12.929Z,45.19
2019-06-07T02:50:55.848Z,45.39
2019-06-07T02:51:41.557Z,45.30
2019-06-07T02:52:29.342Z,45.23
2019-06-07T02:53:09.986Z,45.37
2019-06-07T02:53:53.583Z,45.34
2019-06-07T02:54:40.482Z,45.18
2019-06-07T02:55:24.886Z,45.27
2019-06-07T02:56:58.727Z,45.34
2019-06-07T02:57:41.512Z,45.19
2019-06-07T02:58:26.191Z,45.25
2019-06-07T02:59:10.430Z,45.02
2019-06-07T03:00:06.526Z,45.33
2019-06-07T03:01:06.883Z,45.17
2019-06-07T03:01:39.463Z,45.30
2019-06-07T03:02:17.907Z,45.28
2019-06-07T03:03:01.589Z,45.13
2019-06-07T03:03:45.380Z,45.20
2019-06-07T03:04:29.510Z,45.19
2019-06-07T03:05:14.597Z,45.22
2019-06-07T03:05:58.309Z,45.25
2019-06-07T03:06:43.777Z,45.16
2019-06-07T03:07:28.299Z,45.33
2019-06-07T03:08:14.157Z,45.39
2019-06-07T03:08:56.855Z,45.26
2019-06-07T03:09:40.886Z,45.20
2019-06-07T03:10:28.131Z,45.23
2019-06-07T03:11:09.207Z,45.21
2019-06-07T03:11:52.730Z,45.21
2019-06-07T03:12:39.246Z,45.20
2019-06-07T03:13:22.342Z,45.21
2019-06-07T03:14:06.035Z,45.37
2019-06-07T03:14:49.925Z,45.46
2019-06-07T03:15:44.649Z,45.37
2019-06-07T03:16:19.982Z,45.28
2019-06-07T03:17:21.150Z,45.10
2019-06-07T03:18:08.951Z,45.25
2019-06-07T03:18:56.041Z,45.30
2019-06-07T03:19:40.811Z,45.43
2019-06-07T03:20:27.398Z,45.35
2019-06-07T03:21:15.594Z,45.18
2019-06-07T03:21:58.810Z,45.18
2019-06-07T03:22:43.439Z,45.25
2019-06-07T03:23:29.998Z,45.19
2019-06-07T03:24:14.034Z,45.20
2019-06-07T03:24:57.198Z,45.23
2019-06-07T03:25:40.981Z,45.22
2019-06-07T03:26:27.439Z,45.20
2019-06-07T03:27:33.943Z,45.29
2019-06-07T03:27:56.343Z,45.10
2019-06-07T03:28:39.574Z,45.31
2019-06-07T03:29:23.419Z,45.03
2019-06-07T03:30:36.249Z,45.16
2019-06-07T03:31:01.955Z,45.19
2019-06-07T03:31:41.642Z,45.27
2019-06-07T03:32:22.452Z,45.25
2019-06-07T03:33:05.379Z,45.27
2019-06-07T03:33:48.966Z,45.47
2019-06-07T03:34:39.219Z,45.18
2019-06-07T03:35:17.544Z,45.25
2019-06-07T03:36:13.053Z,45.27
2019-06-07T03:36:46.336Z,45.31
2019-06-07T03:37:30.689Z,45.38
2019-06-07T03:38:14.592Z,45.32
2019-06-07T03:38:58.815Z,45.38
2019-06-07T03:39:42.613Z,45.25
2019-06-07T03:40:26.693Z,45.42
2019-06-07T03:41:10.400Z,45.50
2019-06-07T03:42:05.615Z,45.33
2019-06-07T03:42:40.137Z,45.44
2019-06-07T03:43:23.729Z,45.46
2019-06-07T03:44:07.012Z,45.51
2019-06-07T03:44:50.468Z,45.44
2019-06-07T03:45:37.914Z,45.27
2019-06-07T03:46:19.242Z,45.40
2019-06-07T03:47:03.147Z,45.27
2019-06-07T03:47:47.174Z,45.50
2019-06-07T03:48:32.257Z,45.49
2019-06-07T03:49:15.395Z,45.41
2019-06-07T03:49:58.664Z,45.39
2019-06-07T03:50:42.562Z,45.48
2019-06-07T03:51:27.405Z,45.43
2019-06-07T03:52:12.039Z,45.48
2019-06-07T03:52:55.160Z,45.51
2019-06-07T03:53:40.827Z,45.57
2019-06-07T03:54:24.486Z,45.51
2019-06-07T03:55:07.500Z,45.49
2019-06-07T03:55:51.045Z,45.47
2019-06-07T03:56:36.039Z,45.70
2019-06-07T03:57:19.878Z,45.80
2019-06-07T03:58:31.566Z,45.59
2019-06-07T03:58:50.439Z,45.51
2019-06-07T03:59:38.664Z,45.59
2019-06-07T04:00:19.145Z,45.63
2019-06-07T04:01:02.893Z,45.69
2019-06-07T04:01:45.986Z,45.51
2019-06-07T04:02:30.371Z,45.64
2019-06-07T04:03:32.822Z,45.60
2019-06-07T04:03:59.454Z,45.53
2019-06-07T04:04:43.104Z,45.72
2019-06-07T04:05:28.246Z,45.59
2019-06-07T04:06:11.809Z,45.73
2019-06-07T04:06:55.407Z,45.67
2019-06-07T04:07:44.126Z,45.64
2019-06-07T04:08:24.830Z,45.60
2019-06-07T04:09:09.016Z,45.82
2019-06-07T04:09:52.424Z,45.73
2019-06-07T04:10:53.404Z,45.89
2019-06-07T04:11:20.847Z,45.85
2019-06-07T04:12:04.231Z,45.89
2019-06-07T04:12:47.236Z,45.91
2019-06-07T04:13:34.810Z,46.03
2019-06-07T04:14:15.839Z,46.01
2019-06-07T04:14:58.561Z,45.93
2019-06-07T04:15:42.405Z,45.98
2019-06-07T04:16:26.127Z,45.86
2019-06-07T04:17:08.912Z,45.94
2019-06-07T04:18:01.941Z,46.10
2019-06-07T04:18:40.893Z,45.86
2019-06-07T04:19:22.243Z,46.04
2019-06-07T04:20:09.531Z,45.98
2019-06-07T04:20:52.766Z,46.03
2019-06-07T04:21:39.527Z,45.90
2019-06-07T04:22:21.994Z,46.14
2019-06-07T04:23:25.063Z,45.98
2019-06-07T04:23:50.955Z,45.90
2019-06-07T04:24:38.488Z,45.91
2019-06-07T04:25:19.485Z,46.09
2019-06-07T04:26:02.633Z,46.14
2019-06-07T04:26:46.943Z,45.92
2019-06-07T04:27:30.669Z,46.13
2019-06-07T04:28:14.265Z,46.18
2019-06-07T04:30:05.942Z,46.33
2019-06-07T04:30:44.758Z,46.38
2019-06-07T04:31:28.397Z,46.44
2019-06-07T04:32:11.908Z,46.40
2019-06-07T04:32:55.119Z,46.39
2019-06-07T04:33:41.308Z,46.38
2019-06-07T04:34:24.260Z,46.44
2019-06-07T04:35:07.222Z,46.53
2019-06-07T04:35:50.739Z,46.55
2019-06-07T04:36:45.586Z,46.34
2019-06-07T04:37:19.106Z,46.42
2019-06-07T04:38:03.301Z,46.35
2019-06-07T04:38:47.084Z,46.61
2019-06-07T04:39:33.591Z,46.51
2019-06-07T04:40:15.235Z,46.56
2019-06-07T04:40:59.013Z,46.46
2019-06-07T04:41:42.332Z,46.65
2019-06-07T04:42:26.293Z,46.52
2019-06-07T04:43:10.305Z,46.52
2019-06-07T04:43:53.200Z,46.58
2019-06-07T04:44:39.290Z,46.53
2019-06-07T04:45:33.628Z,46.61
2019-06-07T04:46:07.061Z,46.71
2019-06-07T04:46:51.517Z,46.79
2019-06-07T04:47:37.251Z,46.59
2019-06-07T04:48:21.553Z,46.70
2019-06-07T04:49:05.195Z,46.82
2019-06-07T04:49:49.754Z,46.91
2019-06-07T04:50:35.397Z,46.74
2019-06-07T04:51:18.194Z,46.80
2019-06-07T04:52:01.672Z,46.74
2019-06-07T04:52:45.726Z,46.81
2019-06-07T04:53:30.847Z,46.85
2019-06-07T04:54:14.911Z,46.80
2019-06-07T04:54:57.893Z,46.89
2019-06-07T04:55:41.943Z,46.83
2019-06-07T04:56:25.830Z,46.83
2019-06-07T04:57:08.685Z,46.86
2019-06-07T04:57:52.349Z,46.90
2019-06-07T04:58:38.154Z,47.03
2019-06-07T05:00:00.772Z,47.10
2019-06-07T05:00:46.668Z,47.09
2019-06-07T05:00:58.966Z,47.01
2019-06-07T05:01:41.409Z,47.07
2019-06-07T05:02:22.533Z,47.24
2019-06-07T05:03:06.561Z,47.37
2019-06-07T05:03:49.694Z,47.41
2019-06-07T05:04:34.975Z,47.91
2019-06-07T05:05:18.288Z,47.72
2019-06-07T05:06:01.491Z,47.65
2019-06-07T05:06:44.865Z,47.56
2019-06-07T05:07:30.966Z,47.50
2019-06-07T05:08:27.616Z,47.48
2019-06-07T05:09:00.179Z,47.53
2019-06-07T05:09:43.864Z,47.05
2019-06-07T05:10:26.778Z,46.98
2019-06-07T05:11:10.803Z,46.65
2019-06-07T05:11:54.644Z,46.77
2019-06-07T05:12:40.475Z,46.72
2019-06-07T05:13:23.020Z,46.64
2019-06-07T05:14:06.486Z,46.62
2019-06-07T05:14:49.631Z,46.96
2019-06-07T05:15:34.591Z,47.09
2019-06-07T05:16:19.225Z,47.09
2019-06-07T05:17:02.231Z,46.86
2019-06-07T05:17:45.778Z,47.04
2019-06-07T05:18:29.666Z,46.96
2019-06-07T05:19:12.381Z,46.99
2019-06-07T05:19:55.953Z,47.12
2019-06-07T05:20:41.499Z,47.23
2019-06-07T05:21:24.585Z,47.29
2019-06-07T05:22:08.148Z,47.36
2019-06-07T05:22:51.844Z,47.54
2019-06-07T05:24:19.543Z,47.71
2019-06-07T05:25:03.033Z,47.81
2019-06-07T05:25:46.358Z,47.92
2019-06-07T05:26:30.496Z,47.96
2019-06-07T05:27:15.094Z,48.04
2019-06-07T05:27:57.908Z,48.19
2019-06-07T05:28:43.062Z,48.24
2019-06-07T05:29:26.759Z,48.34
2019-06-07T05:30:36.520Z,48.44
2019-06-07T05:31:04.793Z,48.51
2019-06-07T05:31:44.960Z,48.68
2019-06-07T05:32:24.990Z,48.75
2019-06-07T05:33:08.970Z,48.78
2019-06-07T05:33:52.515Z,48.84
2019-06-07T05:34:37.004Z,48.96
2019-06-07T05:35:20.921Z,49.09
2019-06-07T05:36:04.557Z,49.08
2019-06-07T05:37:08.479Z,49.28
2019-06-07T05:37:33.828Z,49.23
2019-06-07T05:38:18.043Z,49.28
2019-06-07T05:39:01.130Z,49.45
2019-06-07T05:39:46.486Z,49.38
2019-06-07T05:40:36.647Z,49.43
2019-06-07T05:41:19.940Z,49.61
2019-06-07T05:42:03.722Z,49.64
2019-06-07T05:42:47.261Z,49.70
2019-06-07T05:43:35.030Z,49.71
2019-06-07T05:44:15.986Z,49.81
2019-06-07T05:44:59.528Z,49.92
2019-06-07T05:45:46.452Z,49.91
2019-06-07T05:46:27.699Z,49.94
2019-06-07T05:47:11.424Z,50.01
2019-06-07T05:47:54.956Z,50.08
2019-06-07T05:48:41.705Z,50.11
2019-06-07T05:49:23.790Z,50.00
2019-06-07T05:50:37.893Z,50.11
2019-06-07T05:50:56.869Z,50.05
2019-06-07T05:51:41.596Z,50.06
2019-06-07T05:52:22.058Z,50.04
2019-06-07T05:53:06.472Z,50.08
2019-06-07T05:53:50.157Z,50.07
2019-06-07T05:54:35.110Z,50.11
2019-06-07T05:55:18.910Z,50.15
2019-06-07T05:56:02.744Z,50.16
2019-06-07T05:56:46.158Z,50.12
2019-06-07T05:57:29.609Z,50.15
2019-06-07T05:58:12.826Z,50.24
2019-06-07T05:58:55.870Z,50.22
2019-06-07T05:59:43.484Z,50.23
2019-06-07T06:00:25.255Z,50.21
2019-06-07T06:01:42.102Z,50.19
2019-06-07T06:02:02.639Z,50.22
2019-06-07T06:02:56.756Z,50.22
2019-06-07T06:03:24.182Z,50.19
2019-06-07T06:04:07.848Z,50.20
2019-06-07T06:04:51.987Z,50.19
2019-06-07T06:05:41.613Z,50.14
2019-06-07T06:06:20.463Z,50.19
2019-06-07T06:07:03.832Z,50.15
2019-06-07T06:07:50.527Z,50.08
2019-06-07T06:08:36.584Z,50.12
2019-06-07T06:09:18.936Z,50.11
2019-06-07T06:10:01.992Z,50.12
2019-06-07T06:10:48.655Z,50.12
2019-06-07T06:11:45.621Z,50.16
2019-06-07T06:12:33.385Z,50.28
2019-06-07T06:13:01.151Z,50.21
2019-06-07T06:14:05.665Z,50.26
2019-06-07T06:14:30.562Z,50.18
2019-06-07T06:15:15.414Z,50.18
2019-06-07T06:16:02.124Z,50.16
2019-06-07T06:16:47.971Z,50.22
2019-06-07T06:17:29.627Z,50.28
2019-06-07T06:18:12.912Z,50.18
2019-06-07T06:18:56.061Z,50.24
2019-06-07T06:19:40.658Z,50.27
2019-06-07T06:20:32.603Z,50.23
2019-06-07T06:21:19.355Z,50.26
2019-06-07T06:21:55.355Z,50.25
2019-06-07T06:22:41.616Z,50.26
2019-06-07T06:23:24.394Z,50.18
2019-06-07T06:24:08.062Z,50.14
2019-06-07T06:25:29.798Z,50.02
2019-06-07T06:25:38.628Z,50.02
2019-06-07T06:26:22.809Z,49.95
2019-06-07T06:27:28.417Z,49.88
2019-06-07T06:28:12.279Z,49.84
2019-06-07T06:28:37.215Z,49.74
2019-06-07T06:29:21.357Z,49.81
2019-06-07T06:30:07.404Z,49.81
2019-06-07T06:30:50.873Z,49.60
2019-06-07T06:31:34.285Z,49.59
2019-06-07T06:33:03.381Z,49.48
2019-06-07T06:33:49.554Z,49.41
2019-06-07T06:34:31.784Z,49.31
2019-06-07T06:35:15.565Z,49.26
2019-06-07T06:35:58.834Z,49.25
2019-06-07T06:36:45.193Z,49.22
2019-06-07T06:37:27.763Z,49.18
2019-06-07T06:38:11.013Z,49.15
2019-06-07T06:38:53.981Z,49.18
2019-06-07T06:39:37.541Z,49.14
2019-06-07T06:40:21.202Z,49.10
2019-06-07T06:41:15.054Z,49.06
2019-06-07T06:42:00.807Z,49.11
2019-06-07T06:42:35.266Z,49.12
2019-06-07T06:43:18.604Z,49.28
2019-06-07T06:44:02.048Z,49.09
2019-06-07T06:44:47.157Z,49.35
2019-06-07T06:45:30.240Z,49.36
2019-06-07T06:46:14.091Z,49.37
2019-06-07T06:46:58.498Z,49.40
2019-06-07T06:47:43.277Z,49.41
2019-06-07T06:48:27.467Z,49.49
2019-06-07T06:49:11.049Z,49.35
2019-06-07T06:49:54.724Z,49.32
2019-06-07T06:50:38.745Z,49.34
2019-06-07T06:51:22.402Z,49.34
2019-06-07T06:52:05.777Z,49.34
2019-06-07T06:52:54.214Z,49.35
2019-06-07T06:53:34.832Z,49.31
2019-06-07T06:54:37.319Z,49.31
2019-06-07T06:55:03.591Z,49.33
2019-06-07T06:55:49.410Z,49.33
2019-06-07T06:56:32.307Z,49.29
2019-06-07T06:57:19.962Z,49.31
2019-06-07T06:58:01.361Z,49.30
2019-06-07T06:59:39.671Z,49.32
2019-06-07T07:00:16.279Z,49.26
2019-06-07T07:01:06.352Z,49.29
2019-06-07T07:01:48.727Z,49.26
2019-06-07T07:02:30.539Z,49.28
2019-06-07T07:04:12.468Z,49.21
2019-06-07T07:04:48.684Z,49.12
2019-06-07T07:05:31.730Z,49.19
2019-06-07T07:06:26.052Z,49.17
2019-06-07T07:07:00.935Z,49.15
2019-06-07T07:07:45.409Z,49.17
2019-06-07T07:08:29.735Z,49.19
2019-06-07T07:09:13.294Z,49.12
2019-06-07T07:09:59.277Z,49.11
2019-06-07T07:10:48.655Z,49.14
2019-06-07T07:11:31.891Z,49.18
2019-06-07T07:12:15.212Z,49.19
2019-06-07T07:12:58.897Z,49.17
2019-06-07T07:13:44.463Z,49.13
2019-06-07T07:14:27.059Z,49.06
2019-06-07T07:15:19.031Z,49.02
2019-06-07T07:16:02.376Z,48.98
2019-06-07T07:16:49.611Z,48.92
2019-06-07T07:17:47.646Z,48.89
2019-06-07T07:18:16.688Z,48.80
2019-06-07T07:18:59.758Z,48.82
2019-06-07T07:19:46.605Z,48.80
2019-06-07T07:20:28.979Z,48.74
2019-06-07T07:21:12.064Z,48.68
2019-06-07T07:21:55.711Z,48.69
2019-06-07T07:22:39.759Z,48.67
2019-06-07T07:23:23.282Z,48.67
2019-06-07T07:24:21.048Z,48.69
2019-06-07T07:24:54.524Z,48.70
2019-06-07T07:25:36.929Z,48.67
2019-06-07T07:26:20.548Z,48.70
2019-06-07T07:27:04.455Z,48.69
2019-06-07T07:27:49.547Z,48.73
2019-06-07T07:28:32.602Z,48.77
2019-06-07T07:29:15.915Z,48.77
2019-06-07T07:30:34.820Z,48.79
2019-06-07T07:30:55.237Z,48.77
2019-06-07T07:31:39.015Z,48.77
2019-06-07T07:32:22.360Z,48.70
2019-06-07T07:33:07.136Z,48.69
2019-06-07T07:34:37.137Z,48.61
2019-06-07T07:35:21.044Z,48.62
2019-06-07T07:36:18.931Z,48.63
2019-06-07T07:36:52.922Z,48.73
2019-06-07T07:37:35.554Z,48.85
2019-06-07T07:38:19.411Z,48.86
2019-06-07T07:39:05.067Z,48.81
2019-06-07T07:39:51.190Z,48.61
2019-06-07T07:40:56.797Z,48.75
2019-06-07T07:41:18.315Z,48.74
2019-06-07T07:42:20.313Z,48.66
2019-06-07T07:42:50.436Z,48.58
2019-06-07T07:43:32.972Z,48.63
2019-06-07T07:44:16.503Z,48.85
2019-06-07T07:45:00.250Z,48.74
2019-06-07T07:45:46.759Z,48.78
2019-06-07T07:46:30.543Z,48.92
2019-06-07T07:47:15.324Z,48.79
2019-06-07T07:48:14.180Z,48.90
2019-06-07T07:48:44.039Z,48.53
2019-06-07T07:49:28.155Z,48.54
2019-06-07T07:50:11.131Z,48.53
2019-06-07T07:51:00.390Z,48.54
2019-06-07T07:51:39.595Z,48.52
2019-06-07T07:52:22.845Z,48.34
2019-06-07T07:53:06.744Z,48.33
2019-06-07T07:54:02.070Z,48.43
2019-06-07T07:54:35.868Z,48.30
2019-06-07T07:55:19.919Z,48.43
2019-06-07T07:56:04.206Z,48.29
2019-06-07T07:56:48.959Z,48.08
2019-06-07T07:57:32.710Z,48.21
2019-06-07T07:58:16.188Z,48.43
2019-06-07T07:59:01.998Z,48.27
2019-06-07T08:00:01.526Z,48.15
2019-06-07T08:00:52.479Z,48.42
2019-06-07T08:01:15.354Z,48.40
2019-06-07T08:01:59.218Z,48.31
2019-06-07T08:02:42.848Z,48.12
2019-06-07T08:03:25.832Z,48.24
2019-06-07T08:04:09.415Z,48.20
2019-06-07T08:05:20.663Z,48.38
2019-06-07T08:05:42.873Z,48.45
2019-06-07T08:06:24.207Z,48.36
2019-06-07T08:07:07.910Z,48.38
2019-06-07T08:07:55.441Z,48.28
2019-06-07T08:08:36.561Z,48.15
2019-06-07T08:09:19.747Z,48.36
2019-06-07T08:10:04.354Z,48.03
2019-06-07T08:10:51.987Z,48.06
2019-06-07T08:11:34.032Z,48.22
2019-06-07T08:12:16.666Z,48.16
2019-06-07T08:13:22.127Z,48.14
2019-06-07T08:13:45.739Z,48.20
2019-06-07T08:14:28.990Z,48.43
2019-06-07T08:15:12.516Z,48.36
2019-06-07T08:15:58.764Z,48.20
2019-06-07T08:16:40.449Z,48.23
2019-06-07T08:17:23.935Z,48.14
2019-06-07T08:18:07.468Z,47.92
2019-06-07T08:18:53.268Z,47.99
2019-06-07T08:19:35.854Z,48.20
2019-06-07T08:20:20.473Z,48.38
2019-06-07T08:21:21.593Z,48.24
2019-06-07T08:21:49.060Z,48.17
2019-06-07T08:22:32.608Z,47.99
2019-06-07T08:23:15.563Z,47.97
2019-06-07T08:24:04.137Z,48.00
2019-06-07T08:24:44.591Z,47.85
2019-06-07T08:25:27.617Z,47.81
2019-06-07T08:26:11.355Z,47.83
2019-06-07T08:27:18.294Z,47.74
2019-06-07T08:27:40.116Z,47.94
2019-06-07T08:28:24.222Z,48.11
2019-06-07T08:29:08.157Z,48.01
2019-06-07T08:30:14.354Z,47.61
2019-06-07T08:30:58.384Z,47.75
2019-06-07T08:31:22.596Z,48.06
2019-06-07T08:32:05.720Z,48.03
2019-06-07T08:32:54.945Z,48.10
2019-06-07T08:33:35.572Z,48.15
2019-06-07T08:34:18.572Z,48.16
2019-06-07T08:35:06.241Z,47.58
2019-06-07T08:36:41.754Z,47.55
2019-06-07T08:37:16.842Z,47.23
2019-06-07T08:38:24.845Z,46.88
2019-06-07T08:38:52.270Z,46.94
2019-06-07T08:39:32.303Z,47.20
2019-06-07T08:40:15.542Z,47.38
2019-06-07T08:41:10.752Z,47.57
2019-06-07T08:41:54.037Z,47.69
2019-06-07T08:42:36.806Z,47.66
2019-06-07T08:43:20.814Z,47.83
2019-06-07T08:44:08.603Z,47.82
2019-06-07T08:44:45.973Z,47.61
2019-06-07T08:45:29.557Z,47.41
2019-06-07T08:46:13.340Z,47.39
2019-06-07T08:47:18.418Z,47.15
2019-06-07T08:47:41.623Z,47.07
2019-06-07T08:48:30.231Z,47.46
2019-06-07T08:49:10.293Z,47.42
2019-06-07T08:49:56.733Z,47.20
2019-06-07T08:50:38.509Z,47.27
2019-06-07T08:51:22.313Z,47.01
2019-06-07T08:52:11.448Z,47.04
2019-06-07T08:52:54.775Z,47.19
2019-06-07T08:53:35.544Z,47.22
2019-06-07T08:54:22.873Z,47.37
2019-06-07T08:55:05.229Z,47.43
2019-06-07T08:55:49.013Z,47.49
2019-06-07T08:56:31.871Z,47.55
2019-06-07T08:57:21.213Z,47.62
2019-06-07T08:58:07.236Z,47.18
2019-06-07T08:58:46.157Z,46.79
2019-06-07T08:59:29.687Z,47.00
2019-06-07T09:01:04.360Z,46.92
2019-06-07T09:01:43.653Z,47.20
2019-06-07T09:02:27.429Z,47.13
2019-06-07T09:03:10.039Z,46.90
2019-06-07T09:04:00.175Z,47.14
2019-06-07T09:04:39.849Z,47.24
2019-06-07T09:05:22.799Z,47.43
2019-06-07T09:06:16.325Z,46.99
2019-06-07T09:07:07.365Z,47.47
2019-06-07T09:07:35.953Z,47.56
2019-06-07T09:08:30.005Z,47.63
2019-06-07T09:09:07.412Z,47.46
2019-06-07T09:09:50.876Z,47.36
2019-06-07T09:10:34.595Z,47.39
2019-06-07T09:11:18.883Z,47.48
2019-06-07T09:12:08.345Z,47.21
2019-06-07T09:12:47.412Z,47.13
2019-06-07T09:13:30.790Z,47.52
2019-06-07T09:14:14.147Z,47.56
2019-06-07T09:15:12.101Z,47.46
2019-06-07T09:15:43.890Z,47.25
2019-06-07T09:16:27.133Z,47.61
2019-06-07T09:17:12.294Z,47.40
2019-06-07T09:18:34.981Z,47.47
2019-06-07T09:18:44.028Z,47.37
2019-06-07T09:19:26.230Z,47.41
2019-06-07T09:20:30.555Z,47.48
2019-06-07T09:20:58.203Z,47.44
2019-06-07T09:21:41.735Z,47.16
2019-06-07T09:22:25.286Z,47.28
2019-06-07T09:23:16.286Z,47.39
2019-06-07T09:23:54.690Z,47.67
2019-06-07T09:24:40.205Z,47.72
2019-06-07T09:25:23.127Z,47.73
2019-06-07T09:26:17.567Z,47.49
2019-06-07T09:26:52.311Z,47.35
2019-06-07T09:27:35.507Z,47.46
2019-06-07T09:28:20.545Z,47.67
2019-06-07T09:29:08.688Z,47.49
2019-06-07T09:29:49.261Z,47.72
2019-06-07T09:30:43.987Z,47.61
2019-06-07T09:31:51.249Z,47.77
2019-06-07T09:32:18.187Z,47.62
2019-06-07T09:32:58.868Z,47.47
2019-06-07T09:33:43.279Z,47.46
2019-06-07T09:34:26.502Z,47.21
2019-06-07T09:35:16.470Z,47.51
2019-06-07T09:35:56.218Z,47.59
2019-06-07T09:36:41.021Z,47.67
2019-06-07T09:38:03.681Z,47.67
2019-06-07T09:38:23.747Z,47.36
2019-06-07T09:38:54.550Z,47.41
2019-06-07T09:39:38.023Z,47.32